< < Back
Terminal Aerodrome Forecast


Current Version              Previous Versions:   1  2  3  4  5  6  7  8  9  

Terminal Aerodrome Forecast

698
FTUS42 KILM 271700
TAFFLO
TAF
KFLO 271720Z 2718/2818 20003KT P6SM SCT250
     FM280700 00000KT 4SM BR BKN100
     FM281330 21004KT P6SM VCSH SCT025 BKN050=



Latest METAR

079
SAUS70 KWBC 290100 RRF
MTRFLO
METAR KFLO 290053Z 27005KT 10SM OVC015 19/16 A3006 RMK AO2 SLP179
T01890156


USA.gov is the U.S. government's official web portal to all federal, state and local government web resources and services.